sensor_id;sensor_type;location;lat;lon;timestamp;P1;durP1;ratioP1;P2;durP2;ratioP2
67049;SDS011;53955;52.442;13.284;2022-10-04T00:02:18;4.53;;;1.40;;
67049;SDS011;53955;52.442;13.284;2022-10-04T00:04:52;5.50;;;1.67;;
67049;SDS011;53955;52.442;13.284;2022-10-04T00:07:25;8.57;;;2.22;;
67049;SDS011;53955;52.442;13.284;2022-10-04T00:09:54;5.38;;;2.15;;
67049;SDS011;53955;52.442;13.284;2022-10-04T00:12:24;7.53;;;2.00;;
67049;SDS011;53955;52.442;13.284;2022-10-04T00:14:55;5.53;;;2.15;;
67049;SDS011;53955;52.442;13.284;2022-10-04T00:17:25;5.32;;;1.90;;
67049;SDS011;53955;52.442;13.284;2022-10-04T00:19:56;8.00;;;2.05;;
67049;SDS011;53955;52.442;13.284;2022-10-04T00:22:26;6.00;;;1.80;;
67049;SDS011;53955;52.442;13.284;2022-10-04T00:30:42;6.32;;;1.88;;
67049;SDS011;53955;52.442;13.284;2022-10-04T00:33:08;4.45;;;2.30;;
67049;SDS011;53955;52.442;13.284;2022-10-04T00:35:45;8.07;;;2.60;;
67049;SDS011;53955;52.442;13.284;2022-10-04T00:38:14;6.53;;;2.03;;
67049;SDS011;53955;52.442;13.284;2022-10-04T00:40:44;6.80;;;2.05;;
67049;SDS011;53955;52.442;13.284;2022-10-04T00:43:15;10.13;;;2.45;;
67049;SDS011;53955;52.442;13.284;2022-10-04T00:45:45;8.32;;;2.13;;
67049;SDS011;53955;52.442;13.284;2022-10-04T00:48:37;8.20;;;2.38;;
67049;SDS011;53955;52.442;13.284;2022-10-04T00:51:11;5.47;;;2.22;;
67049;SDS011;53955;52.442;13.284;2022-10-04T00:53:47;6.40;;;2.03;;
67049;SDS011;53955;52.442;13.284;2022-10-04T00:56:24;5.03;;;2.03;;
67049;SDS011;53955;52.442;13.284;2022-10-04T00:59:05;7.00;;;3.35;;
67049;SDS011;53955;52.442;13.284;2022-10-04T01:01:39;8.50;;;2.55;;
67049;SDS011;53955;52.442;13.284;2022-10-04T01:04:12;7.95;;;2.08;;
67049;SDS011;53955;52.442;13.284;2022-10-04T01:06:52;6.90;;;2.25;;
67049;SDS011;53955;52.442;13.284;2022-10-04T01:09:21;4.55;;;1.70;;
67049;SDS011;53955;52.442;13.284;2022-10-04T01:11:51;5.65;;;2.10;;
67049;SDS011;53955;52.442;13.284;2022-10-04T01:14:28;5.28;;;2.13;;
67049;SDS011;53955;52.442;13.284;2022-10-04T01:17:02;6.97;;;2.20;;
67049;SDS011;53955;52.442;13.284;2022-10-04T01:19:29;27.38;;;2.33;;
67049;SDS011;53955;52.442;13.284;2022-10-04T01:21:58;7.32;;;2.17;;
67049;SDS011;53955;52.442;13.284;2022-10-04T01:24:36;5.25;;;2.38;;
67049;SDS011;53955;52.442;13.284;2022-10-04T01:27:06;6.78;;;2.30;;
67049;SDS011;53955;52.442;13.284;2022-10-04T01:30:03;3.80;;;1.90;;
67049;SDS011;53955;52.442;13.284;2022-10-04T01:32:33;11.55;;;2.17;;
67049;SDS011;53955;52.442;13.284;2022-10-04T01:35:00;5.10;;;2.40;;
67049;SDS011;53955;52.442;13.284;2022-10-04T01:37:27;6.72;;;2.30;;
67049;SDS011;53955;52.442;13.284;2022-10-04T01:39:54;5.05;;;1.85;;
67049;SDS011;53955;52.442;13.284;2022-10-04T01:42:22;6.63;;;1.85;;
67049;SDS011;53955;52.442;13.284;2022-10-04T01:44:55;4.88;;;2.10;;
67049;SDS011;53955;52.442;13.284;2022-10-04T01:47:28;7.43;;;2.05;;
67049;SDS011;53955;52.442;13.284;2022-10-04T01:49:58;6.95;;;2.13;;
67049;SDS011;53955;52.442;13.284;2022-10-04T01:52:31;8.10;;;2.05;;
67049;SDS011;53955;52.442;13.284;2022-10-04T01:55:04;3.83;;;1.77;;
67049;SDS011;53955;52.442;13.284;2022-10-04T01:57:35;8.57;;;2.15;;
67049;SDS011;53955;52.442;13.284;2022-10-04T02:00:06;5.03;;;2.38;;
67049;SDS011;53955;52.442;13.284;2022-10-04T02:02:37;7.63;;;2.67;;
67049;SDS011;53955;52.442;13.284;2022-10-04T02:05:09;8.20;;;2.10;;
67049;SDS011;53955;52.442;13.284;2022-10-04T02:07:38;6.10;;;1.70;;
67049;SDS011;53955;52.442;13.284;2022-10-04T02:10:09;6.60;;;2.13;;
67049;SDS011;53955;52.442;13.284;2022-10-04T02:12:42;5.60;;;2.00;;
67049;SDS011;53955;52.442;13.284;2022-10-04T02:15:12;10.07;;;2.40;;
67049;SDS011;53955;52.442;13.284;2022-10-04T02:17:39;5.53;;;2.10;;
67049;SDS011;53955;52.442;13.284;2022-10-04T02:20:09;8.20;;;2.67;;
67049;SDS011;53955;52.442;13.284;2022-10-04T02:22:39;7.25;;;2.28;;
67049;SDS011;53955;52.442;13.284;2022-10-04T02:25:08;6.72;;;2.47;;
67049;SDS011;53955;52.442;13.284;2022-10-04T02:27:36;3.83;;;1.90;;
67049;SDS011;53955;52.442;13.284;2022-10-04T02:30:03;4.97;;;1.88;;
67049;SDS011;53955;52.442;13.284;2022-10-04T02:32:32;4.35;;;1.75;;
67049;SDS011;53955;52.442;13.284;2022-10-04T02:35:17;10.23;;;2.28;;
67049;SDS011;53955;52.442;13.284;2022-10-04T02:37:45;5.93;;;1.98;;
67049;SDS011;53955;52.442;13.284;2022-10-04T02:40:16;3.42;;;1.80;;
67049;SDS011;53955;52.442;13.284;2022-10-04T02:42:46;7.55;;;1.98;;
67049;SDS011;53955;52.442;13.284;2022-10-04T02:45:18;6.25;;;1.98;;
67049;SDS011;53955;52.442;13.284;2022-10-04T02:47:50;4.70;;;2.10;;
67049;SDS011;53955;52.442;13.284;2022-10-04T02:50:21;3.40;;;1.52;;
67049;SDS011;53955;52.442;13.284;2022-10-04T02:52:55;5.85;;;1.55;;
67049;SDS011;53955;52.442;13.284;2022-10-04T02:55:28;5.97;;;1.65;;
67049;SDS011;53955;52.442;13.284;2022-10-04T02:57:56;8.68;;;2.28;;
67049;SDS011;53955;52.442;13.284;2022-10-04T03:00:25;7.47;;;2.08;;
67049;SDS011;53955;52.442;13.284;2022-10-04T03:03:10;7.72;;;1.88;;
67049;SDS011;53955;52.442;13.284;2022-10-04T03:05:45;5.20;;;1.60;;
67049;SDS011;53955;52.442;13.284;2022-10-04T03:08:17;5.47;;;1.80;;
67049;SDS011;53955;52.442;13.284;2022-10-04T03:10:46;8.48;;;2.33;;
67049;SDS011;53955;52.442;13.284;2022-10-04T03:13:13;4.93;;;1.73;;
67049;SDS011;53955;52.442;13.284;2022-10-04T03:15:41;6.90;;;2.10;;
67049;SDS011;53955;52.442;13.284;2022-10-04T03:18:08;8.33;;;1.73;;
67049;SDS011;53955;52.442;13.284;2022-10-04T03:20:35;8.53;;;1.80;;
67049;SDS011;53955;52.442;13.284;2022-10-04T03:23:03;7.93;;;1.80;;
67049;SDS011;53955;52.442;13.284;2022-10-04T03:25:34;7.30;;;1.90;;
67049;SDS011;53955;52.442;13.284;2022-10-04T03:28:09;5.90;;;2.00;;
67049;SDS011;53955;52.442;13.284;2022-10-04T03:30:36;5.87;;;1.93;;
67049;SDS011;53955;52.442;13.284;2022-10-04T03:33:10;5.70;;;1.45;;
67049;SDS011;53955;52.442;13.284;2022-10-04T03:35:47;3.53;;;1.42;;
67049;SDS011;53955;52.442;13.284;2022-10-04T03:38:17;5.30;;;1.67;;
67049;SDS011;53955;52.442;13.284;2022-10-04T03:40:47;3.65;;;1.35;;
67049;SDS011;53955;52.442;13.284;2022-10-04T03:43:18;8.30;;;1.80;;
67049;SDS011;53955;52.442;13.284;2022-10-04T03:45:50;7.80;;;2.10;;
67049;SDS011;53955;52.442;13.284;2022-10-04T03:48:21;4.97;;;1.60;;
67049;SDS011;53955;52.442;13.284;2022-10-04T03:50:55;5.97;;;1.88;;
67049;SDS011;53955;52.442;13.284;2022-10-04T03:53:26;2.45;;;1.30;;
67049;SDS011;53955;52.442;13.284;2022-10-04T03:55:55;5.70;;;1.50;;
67049;SDS011;53955;52.442;13.284;2022-10-04T03:58:25;5.45;;;1.50;;
67049;SDS011;53955;52.442;13.284;2022-10-04T04:00:58;7.82;;;1.95;;
67049;SDS011;53955;52.442;13.284;2022-10-04T04:03:39;4.07;;;1.58;;
67049;SDS011;53955;52.442;13.284;2022-10-04T04:06:13;7.63;;;1.73;;
67049;SDS011;53955;52.442;13.284;2022-10-04T04:08:42;8.90;;;1.80;;
67049;SDS011;53955;52.442;13.284;2022-10-04T04:11:14;5.37;;;1.30;;
67049;SDS011;53955;52.442;13.284;2022-10-04T04:13:48;6.40;;;2.13;;
67049;SDS011;53955;52.442;13.284;2022-10-04T04:16:21;4.47;;;1.75;;
67049;SDS011;53955;52.442;13.284;2022-10-04T04:18:50;6.47;;;2.17;;
67049;SDS011;53955;52.442;13.284;2022-10-04T04:21:18;7.80;;;1.55;;
67049;SDS011;53955;52.442;13.284;2022-10-04T04:23:48;5.55;;;1.70;;
67049;SDS011;53955;52.442;13.284;2022-10-04T04:26:22;6.03;;;2.05;;
67049;SDS011;53955;52.442;13.284;2022-10-04T04:28:54;7.70;;;1.80;;
67049;SDS011;53955;52.442;13.284;2022-10-04T04:31:28;4.57;;;1.50;;
67049;SDS011;53955;52.442;13.284;2022-10-04T04:33:59;4.07;;;1.63;;
67049;SDS011;53955;52.442;13.284;2022-10-04T04:36:27;5.28;;;1.50;;
67049;SDS011;53955;52.442;13.284;2022-10-04T04:39:05;6.18;;;1.73;;
67049;SDS011;53955;52.442;13.284;2022-10-04T04:41:50;3.97;;;1.83;;
67049;SDS011;53955;52.442;13.284;2022-10-04T04:44:18;6.93;;;1.80;;
67049;SDS011;53955;52.442;13.284;2022-10-04T04:46:45;8.75;;;1.80;;
67049;SDS011;53955;52.442;13.284;2022-10-04T04:49:13;4.00;;;1.60;;
67049;SDS011;53955;52.442;13.284;2022-10-04T04:51:45;4.88;;;1.40;;
67049;SDS011;53955;52.442;13.284;2022-10-04T04:54:15;6.97;;;1.92;;
67049;SDS011;53955;52.442;13.284;2022-10-04T04:56:43;5.95;;;1.90;;
67049;SDS011;53955;52.442;13.284;2022-10-04T04:59:13;4.90;;;1.88;;
67049;SDS011;53955;52.442;13.284;2022-10-04T05:01:43;4.40;;;1.38;;
67049;SDS011;53955;52.442;13.284;2022-10-04T05:04:15;4.97;;;1.75;;
67049;SDS011;53955;52.442;13.284;2022-10-04T05:06:44;6.07;;;1.75;;
67049;SDS011;53955;52.442;13.284;2022-10-04T05:09:20;7.10;;;2.08;;
67049;SDS011;53955;52.442;13.284;2022-10-04T05:11:48;7.57;;;2.33;;
67049;SDS011;53955;52.442;13.284;2022-10-04T05:14:16;6.35;;;1.80;;
67049;SDS011;53955;52.442;13.284;2022-10-04T05:16:45;6.28;;;2.33;;
67049;SDS011;53955;52.442;13.284;2022-10-04T05:19:15;5.20;;;1.95;;
67049;SDS011;53955;52.442;13.284;2022-10-04T05:21:45;7.47;;;1.80;;
67049;SDS011;53955;52.442;13.284;2022-10-04T05:24:16;6.25;;;2.22;;
67049;SDS011;53955;52.442;13.284;2022-10-04T05:26:48;5.22;;;1.60;;
67049;SDS011;53955;52.442;13.284;2022-10-04T05:29:16;5.25;;;1.63;;
67049;SDS011;53955;52.442;13.284;2022-10-04T05:31:47;4.45;;;1.77;;
67049;SDS011;53955;52.442;13.284;2022-10-04T05:34:21;5.57;;;2.38;;
67049;SDS011;53955;52.442;13.284;2022-10-04T05:36:52;5.88;;;2.25;;
67049;SDS011;53955;52.442;13.284;2022-10-04T05:39:26;4.47;;;2.03;;
67049;SDS011;53955;52.442;13.284;2022-10-04T05:41:59;6.38;;;2.17;;
67049;SDS011;53955;52.442;13.284;2022-10-04T05:44:34;4.10;;;1.92;;
67049;SDS011;53955;52.442;13.284;2022-10-04T05:47:05;4.90;;;1.90;;
67049;SDS011;53955;52.442;13.284;2022-10-04T05:49:33;5.57;;;1.88;;
67049;SDS011;53955;52.442;13.284;2022-10-04T05:52:12;6.53;;;1.75;;
67049;SDS011;53955;52.442;13.284;2022-10-04T05:54:42;7.75;;;1.77;;
67049;SDS011;53955;52.442;13.284;2022-10-04T05:57:11;4.88;;;2.17;;
67049;SDS011;53955;52.442;13.284;2022-10-04T06:00:00;5.88;;;1.90;;
67049;SDS011;53955;52.442;13.284;2022-10-04T06:02:39;8.45;;;1.73;;
67049;SDS011;53955;52.442;13.284;2022-10-04T06:05:22;8.30;;;2.50;;
67049;SDS011;53955;52.442;13.284;2022-10-04T06:07:56;10.10;;;2.17;;
67049;SDS011;53955;52.442;13.284;2022-10-04T06:10:44;5.70;;;1.67;;
67049;SDS011;53955;52.442;13.284;2022-10-04T06:13:21;7.65;;;1.70;;
67049;SDS011;53955;52.442;13.284;2022-10-04T06:16:06;3.72;;;1.70;;
67049;SDS011;53955;52.442;13.284;2022-10-04T06:18:45;6.40;;;1.90;;
67049;SDS011;53955;52.442;13.284;2022-10-04T06:21:34;10.95;;;1.92;;
67049;SDS011;53955;52.442;13.284;2022-10-04T06:24:09;7.55;;;1.98;;
67049;SDS011;53955;52.442;13.284;2022-10-04T06:26:42;7.05;;;2.10;;
67049;SDS011;53955;52.442;13.284;2022-10-04T06:29:13;10.77;;;2.72;;
67049;SDS011;53955;52.442;13.284;2022-10-04T06:31:54;6.60;;;2.30;;
67049;SDS011;53955;52.442;13.284;2022-10-04T06:34:51;5.40;;;2.08;;
67049;SDS011;53955;52.442;13.284;2022-10-04T06:37:41;6.43;;;2.65;;
67049;SDS011;53955;52.442;13.284;2022-10-04T06:43:23;6.32;;;2.40;;
67049;SDS011;53955;52.442;13.284;2022-10-04T06:46:04;8.30;;;2.65;;
67049;SDS011;53955;52.442;13.284;2022-10-04T06:48:38;5.05;;;2.10;;
67049;SDS011;53955;52.442;13.284;2022-10-04T06:51:24;7.18;;;1.95;;
67049;SDS011;53955;52.442;13.284;2022-10-04T06:54:19;4.72;;;2.20;;
67049;SDS011;53955;52.442;13.284;2022-10-04T06:57:15;8.95;;;2.33;;
67049;SDS011;53955;52.442;13.284;2022-10-04T07:00:02;7.50;;;2.40;;
67049;SDS011;53955;52.442;13.284;2022-10-04T07:02:34;6.53;;;2.20;;
67049;SDS011;53955;52.442;13.284;2022-10-04T07:05:10;6.67;;;1.90;;
67049;SDS011;53955;52.442;13.284;2022-10-04T07:07:44;6.20;;;1.60;;
67049;SDS011;53955;52.442;13.284;2022-10-04T07:10:31;4.50;;;2.07;;
67049;SDS011;53955;52.442;13.284;2022-10-04T07:13:04;13.40;;;2.17;;
67049;SDS011;53955;52.442;13.284;2022-10-04T07:15:42;5.20;;;2.07;;
67049;SDS011;53955;52.442;13.284;2022-10-04T07:18:14;3.73;;;1.90;;
67049;SDS011;53955;52.442;13.284;2022-10-04T07:20:48;5.73;;;2.47;;
67049;SDS011;53955;52.442;13.284;2022-10-04T07:23:21;7.73;;;2.90;;
67049;SDS011;53955;52.442;13.284;2022-10-04T07:25:54;9.57;;;2.60;;
67049;SDS011;53955;52.442;13.284;2022-10-04T07:28:25;5.18;;;2.90;;
67049;SDS011;53955;52.442;13.284;2022-10-04T07:31:13;7.28;;;2.75;;
67049;SDS011;53955;52.442;13.284;2022-10-04T07:33:50;8.02;;;2.70;;
67049;SDS011;53955;52.442;13.284;2022-10-04T07:36:23;8.90;;;2.67;;
67049;SDS011;53955;52.442;13.284;2022-10-04T07:38:55;9.98;;;2.92;;
67049;SDS011;53955;52.442;13.284;2022-10-04T07:41:25;7.15;;;2.67;;
67049;SDS011;53955;52.442;13.284;2022-10-04T07:43:56;5.15;;;2.85;;
67049;SDS011;53955;52.442;13.284;2022-10-04T07:46:36;8.27;;;2.72;;
67049;SDS011;53955;52.442;13.284;2022-10-04T07:49:12;8.95;;;2.92;;
67049;SDS011;53955;52.442;13.284;2022-10-04T07:51:42;6.13;;;2.47;;
67049;SDS011;53955;52.442;13.284;2022-10-04T07:54:23;10.77;;;3.38;;
67049;SDS011;53955;52.442;13.284;2022-10-04T07:56:58;7.70;;;2.80;;
67049;SDS011;53955;52.442;13.284;2022-10-04T07:59:34;7.90;;;3.22;;
67049;SDS011;53955;52.442;13.284;2022-10-04T08:02:15;8.32;;;3.35;;
67049;SDS011;53955;52.442;13.284;2022-10-04T08:04:52;7.33;;;3.50;;
67049;SDS011;53955;52.442;13.284;2022-10-04T08:07:30;5.80;;;3.20;;
67049;SDS011;53955;52.442;13.284;2022-10-04T08:10:12;5.47;;;3.23;;
67049;SDS011;53955;52.442;13.284;2022-10-04T08:12:51;6.25;;;3.22;;
67049;SDS011;53955;52.442;13.284;2022-10-04T08:15:28;9.03;;;3.33;;
67049;SDS011;53955;52.442;13.284;2022-10-04T08:18:03;9.15;;;3.78;;
67049;SDS011;53955;52.442;13.284;2022-10-04T08:20:47;4.30;;;2.70;;
67049;SDS011;53955;52.442;13.284;2022-10-04T08:23:23;8.50;;;3.50;;
67049;SDS011;53955;52.442;13.284;2022-10-04T08:26:09;5.13;;;2.50;;
67049;SDS011;53955;52.442;13.284;2022-10-04T08:28:58;5.43;;;2.63;;
67049;SDS011;53955;52.442;13.284;2022-10-04T08:31:56;7.38;;;2.55;;
67049;SDS011;53955;52.442;13.284;2022-10-04T08:34:32;7.57;;;2.20;;
67049;SDS011;53955;52.442;13.284;2022-10-04T08:37:13;6.90;;;2.70;;
67049;SDS011;53955;52.442;13.284;2022-10-04T08:39:52;3.95;;;1.98;;
67049;SDS011;53955;52.442;13.284;2022-10-04T08:42:58;4.85;;;1.83;;
67049;SDS011;53955;52.442;13.284;2022-10-04T08:51:58;4.53;;;2.20;;
67049;SDS011;53955;52.442;13.284;2022-10-04T08:54:58;4.05;;;1.98;;
67049;SDS011;53955;52.442;13.284;2022-10-04T08:58:01;4.00;;;1.85;;
67049;SDS011;53955;52.442;13.284;2022-10-04T09:00:49;6.47;;;1.80;;
67049;SDS011;53955;52.442;13.284;2022-10-04T09:06:34;3.30;;;1.42;;
67049;SDS011;53955;52.442;13.284;2022-10-04T09:09:28;4.18;;;1.67;;
67049;SDS011;53955;52.442;13.284;2022-10-04T09:12:13;3.67;;;1.80;;
67049;SDS011;53955;52.442;13.284;2022-10-04T09:17:52;4.13;;;1.90;;
67049;SDS011;53955;52.442;13.284;2022-10-04T09:20:22;5.82;;;1.75;;
67049;SDS011;53955;52.442;13.284;2022-10-04T09:23:00;2.85;;;1.27;;
67049;SDS011;53955;52.442;13.284;2022-10-04T09:25:46;3.97;;;2.13;;
67049;SDS011;53955;52.442;13.284;2022-10-04T09:28:43;4.03;;;1.85;;
67049;SDS011;53955;52.442;13.284;2022-10-04T09:31:38;4.53;;;1.65;;
67049;SDS011;53955;52.442;13.284;2022-10-04T09:34:20;3.95;;;1.98;;
67049;SDS011;53955;52.442;13.284;2022-10-04T09:37:19;4.63;;;1.58;;
67049;SDS011;53955;52.442;13.284;2022-10-04T09:40:20;3.13;;;1.85;;
67049;SDS011;53955;52.442;13.284;2022-10-04T09:43:05;8.13;;;1.90;;
67049;SDS011;53955;52.442;13.284;2022-10-04T09:45:59;6.10;;;2.05;;
67049;SDS011;53955;52.442;13.284;2022-10-04T09:48:42;4.63;;;2.17;;
67049;SDS011;53955;52.442;13.284;2022-10-04T09:51:21;6.20;;;2.03;;
67049;SDS011;53955;52.442;13.284;2022-10-04T09:54:10;6.63;;;2.20;;
67049;SDS011;53955;52.442;13.284;2022-10-04T09:57:07;6.45;;;1.80;;
67049;SDS011;53955;52.442;13.284;2022-10-04T09:59:56;4.85;;;1.80;;
67049;SDS011;53955;52.442;13.284;2022-10-04T10:02:54;5.35;;;2.05;;
67049;SDS011;53955;52.442;13.284;2022-10-04T10:05:55;5.05;;;2.00;;
67049;SDS011;53955;52.442;13.284;2022-10-04T10:08:40;4.50;;;1.90;;
67049;SDS011;53955;52.442;13.284;2022-10-04T10:11:14;7.93;;;2.28;;
67049;SDS011;53955;52.442;13.284;2022-10-04T10:14:15;5.45;;;1.90;;
67049;SDS011;53955;52.442;13.284;2022-10-04T10:16:55;6.63;;;2.13;;
67049;SDS011;53955;52.442;13.284;2022-10-04T10:19:45;6.78;;;1.85;;
67049;SDS011;53955;52.442;13.284;2022-10-04T10:22:42;3.78;;;1.73;;
67049;SDS011;53955;52.442;13.284;2022-10-04T10:25:43;8.52;;;1.90;;
67049;SDS011;53955;52.442;13.284;2022-10-04T10:28:27;6.70;;;1.77;;
67049;SDS011;53955;52.442;13.284;2022-10-04T10:31:20;3.38;;;1.60;;
67049;SDS011;53955;52.442;13.284;2022-10-04T10:34:11;3.40;;;1.55;;
67049;SDS011;53955;52.442;13.284;2022-10-04T10:36:52;3.55;;;1.20;;
67049;SDS011;53955;52.442;13.284;2022-10-04T10:42:42;3.30;;;1.58;;
67049;SDS011;53955;52.442;13.284;2022-10-04T10:45:29;4.70;;;1.48;;
67049;SDS011;53955;52.442;13.284;2022-10-04T10:48:11;7.05;;;1.77;;
67049;SDS011;53955;52.442;13.284;2022-10-04T10:50:52;7.90;;;1.77;;
67049;SDS011;53955;52.442;13.284;2022-10-04T10:53:39;4.30;;;1.40;;
67049;SDS011;53955;52.442;13.284;2022-10-04T10:56:29;5.32;;;1.80;;
67049;SDS011;53955;52.442;13.284;2022-10-04T10:59:10;5.05;;;1.50;;
67049;SDS011;53955;52.442;13.284;2022-10-04T11:02:03;6.47;;;1.60;;
67049;SDS011;53955;52.442;13.284;2022-10-04T11:04:50;4.93;;;1.27;;
67049;SDS011;53955;52.442;13.284;2022-10-04T11:07:40;6.28;;;1.98;;
67049;SDS011;53955;52.442;13.284;2022-10-04T11:13:35;5.38;;;2.13;;
67049;SDS011;53955;52.442;13.284;2022-10-04T11:16:29;4.63;;;1.90;;
67049;SDS011;53955;52.442;13.284;2022-10-04T11:19:20;3.75;;;1.80;;
67049;SDS011;53955;52.442;13.284;2022-10-04T11:25:22;5.00;;;1.90;;
67049;SDS011;53955;52.442;13.284;2022-10-04T11:28:04;3.88;;;1.65;;
67049;SDS011;53955;52.442;13.284;2022-10-04T11:30:39;5.35;;;1.77;;
67049;SDS011;53955;52.442;13.284;2022-10-04T11:33:47;3.67;;;1.60;;
67049;SDS011;53955;52.442;13.284;2022-10-04T11:36:44;5.88;;;2.00;;
67049;SDS011;53955;52.442;13.284;2022-10-04T11:39:39;5.43;;;2.35;;
67049;SDS011;53955;52.442;13.284;2022-10-04T11:42:16;5.05;;;1.77;;
67049;SDS011;53955;52.442;13.284;2022-10-04T11:48:00;5.10;;;1.20;;
67049;SDS011;53955;52.442;13.284;2022-10-04T11:50:47;7.88;;;1.50;;
67049;SDS011;53955;52.442;13.284;2022-10-04T11:56:29;4.75;;;1.45;;
67049;SDS011;53955;52.442;13.284;2022-10-04T11:59:17;2.60;;;1.33;;
67049;SDS011;53955;52.442;13.284;2022-10-04T12:01:57;4.15;;;1.25;;
67049;SDS011;53955;52.442;13.284;2022-10-04T12:05:06;5.50;;;1.30;;
67049;SDS011;53955;52.442;13.284;2022-10-04T12:08:00;4.63;;;1.20;;
67049;SDS011;53955;52.442;13.284;2022-10-04T12:10:44;3.78;;;1.70;;
67049;SDS011;53955;52.442;13.284;2022-10-04T12:13:33;5.07;;;1.60;;
67049;SDS011;53955;52.442;13.284;2022-10-04T12:16:27;5.85;;;1.70;;
67049;SDS011;53955;52.442;13.284;2022-10-04T12:25:14;3.95;;;1.50;;
67049;SDS011;53955;52.442;13.284;2022-10-04T12:28:14;8.73;;;1.75;;
67049;SDS011;53955;52.442;13.284;2022-10-04T12:31:02;5.20;;;1.75;;
67049;SDS011;53955;52.442;13.284;2022-10-04T12:33:39;5.90;;;1.70;;
67049;SDS011;53955;52.442;13.284;2022-10-04T12:36:19;2.42;;;1.50;;
67049;SDS011;53955;52.442;13.284;2022-10-04T12:39:15;6.35;;;1.52;;
67049;SDS011;53955;52.442;13.284;2022-10-04T12:41:55;3.10;;;1.15;;
67049;SDS011;53955;52.442;13.284;2022-10-04T12:44:38;4.20;;;1.45;;
67049;SDS011;53955;52.442;13.284;2022-10-04T12:47:29;3.80;;;1.40;;
67049;SDS011;53955;52.442;13.284;2022-10-04T12:50:10;2.30;;;1.00;;
67049;SDS011;53955;52.442;13.284;2022-10-04T12:52:48;5.72;;;1.50;;
67049;SDS011;53955;52.442;13.284;2022-10-04T12:55:20;3.92;;;1.30;;
67049;SDS011;53955;52.442;13.284;2022-10-04T12:58:06;3.92;;;1.40;;
67049;SDS011;53955;52.442;13.284;2022-10-04T13:00:46;3.63;;;1.45;;
67049;SDS011;53955;52.442;13.284;2022-10-04T13:03:24;5.28;;;1.83;;
67049;SDS011;53955;52.442;13.284;2022-10-04T13:06:05;4.30;;;1.42;;
67049;SDS011;53955;52.442;13.284;2022-10-04T13:11:32;4.05;;;1.75;;
67049;SDS011;53955;52.442;13.284;2022-10-04T13:17:08;4.53;;;1.45;;
67049;SDS011;53955;52.442;13.284;2022-10-04T13:19:44;3.33;;;1.13;;
67049;SDS011;53955;52.442;13.284;2022-10-04T13:22:22;4.18;;;1.92;;
67049;SDS011;53955;52.442;13.284;2022-10-04T13:24:58;5.53;;;1.15;;
67049;SDS011;53955;52.442;13.284;2022-10-04T13:27:39;11.18;;;1.67;;
67049;SDS011;53955;52.442;13.284;2022-10-04T13:30:16;5.03;;;1.10;;
67049;SDS011;53955;52.442;13.284;2022-10-04T13:32:49;3.75;;;1.30;;
67049;SDS011;53955;52.442;13.284;2022-10-04T13:35:22;3.35;;;1.10;;
67049;SDS011;53955;52.442;13.284;2022-10-04T13:37:54;5.60;;;1.33;;
67049;SDS011;53955;52.442;13.284;2022-10-04T13:40:35;2.63;;;1.00;;
67049;SDS011;53955;52.442;13.284;2022-10-04T13:43:33;2.80;;;1.10;;
67049;SDS011;53955;52.442;13.284;2022-10-04T13:46:20;5.28;;;1.27;;
67049;SDS011;53955;52.442;13.284;2022-10-04T13:49:03;4.10;;;1.40;;
67049;SDS011;53955;52.442;13.284;2022-10-04T13:51:48;2.03;;;1.08;;
67049;SDS011;53955;52.442;13.284;2022-10-04T13:54:45;3.97;;;1.23;;
67049;SDS011;53955;52.442;13.284;2022-10-04T13:57:51;3.13;;;0.90;;
67049;SDS011;53955;52.442;13.284;2022-10-04T14:00:31;3.67;;;1.10;;
67049;SDS011;53955;52.442;13.284;2022-10-04T14:03:20;2.03;;;0.90;;
67049;SDS011;53955;52.442;13.284;2022-10-04T14:06:02;4.13;;;1.05;;
67049;SDS011;53955;52.442;13.284;2022-10-04T14:08:50;6.07;;;1.48;;
67049;SDS011;53955;52.442;13.284;2022-10-04T14:11:35;4.97;;;1.10;;
67049;SDS011;53955;52.442;13.284;2022-10-04T14:14:30;1.73;;;0.95;;
67049;SDS011;53955;52.442;13.284;2022-10-04T14:24:26;3.85;;;1.95;;
67049;SDS011;53955;52.442;13.284;2022-10-04T14:30:42;3.80;;;1.27;;
67049;SDS011;53955;52.442;13.284;2022-10-04T14:33:30;4.63;;;1.10;;
67049;SDS011;53955;52.442;13.284;2022-10-04T14:36:21;3.10;;;1.00;;
67049;SDS011;53955;52.442;13.284;2022-10-04T14:39:23;2.97;;;1.10;;
67049;SDS011;53955;52.442;13.284;2022-10-04T14:45:31;1.17;;;1.00;;
67049;SDS011;53955;52.442;13.284;2022-10-04T14:48:15;2.30;;;0.95;;
67049;SDS011;53955;52.442;13.284;2022-10-04T14:50:59;1.98;;;1.00;;
67049;SDS011;53955;52.442;13.284;2022-10-04T14:53:48;3.55;;;1.20;;
67049;SDS011;53955;52.442;13.284;2022-10-04T14:56:26;5.60;;;1.63;;
67049;SDS011;53955;52.442;13.284;2022-10-04T14:59:19;3.60;;;1.27;;
67049;SDS011;53955;52.442;13.284;2022-10-04T15:02:10;1.95;;;1.20;;
67049;SDS011;53955;52.442;13.284;2022-10-04T15:05:02;2.42;;;1.10;;
67049;SDS011;53955;52.442;13.284;2022-10-04T15:07:58;4.20;;;1.23;;
67049;SDS011;53955;52.442;13.284;2022-10-04T15:10:51;3.90;;;1.30;;
67049;SDS011;53955;52.442;13.284;2022-10-04T15:13:22;5.20;;;1.20;;
67049;SDS011;53955;52.442;13.284;2022-10-04T15:15:58;3.45;;;1.20;;
67049;SDS011;53955;52.442;13.284;2022-10-04T15:18:38;3.10;;;1.00;;
67049;SDS011;53955;52.442;13.284;2022-10-04T15:21:34;2.70;;;0.95;;
67049;SDS011;53955;52.442;13.284;2022-10-04T15:24:19;3.30;;;1.08;;
67049;SDS011;53955;52.442;13.284;2022-10-04T15:26:51;3.50;;;1.40;;
67049;SDS011;53955;52.442;13.284;2022-10-04T15:29:41;7.57;;;1.75;;
67049;SDS011;53955;52.442;13.284;2022-10-04T15:32:18;4.18;;;1.20;;
67049;SDS011;53955;52.442;13.284;2022-10-04T15:34:56;2.90;;;1.10;;
67049;SDS011;53955;52.442;13.284;2022-10-04T15:37:34;2.17;;;1.10;;
67049;SDS011;53955;52.442;13.284;2022-10-04T15:40:12;2.70;;;0.80;;
67049;SDS011;53955;52.442;13.284;2022-10-04T15:42:53;2.78;;;0.80;;
67049;SDS011;53955;52.442;13.284;2022-10-04T15:45:49;2.10;;;1.13;;
67049;SDS011;53955;52.442;13.284;2022-10-04T15:48:36;3.10;;;1.10;;
67049;SDS011;53955;52.442;13.284;2022-10-04T15:51:18;2.17;;;1.00;;
67049;SDS011;53955;52.442;13.284;2022-10-04T15:54:07;2.83;;;1.10;;
67049;SDS011;53955;52.442;13.284;2022-10-04T15:56:43;3.72;;;1.27;;
67049;SDS011;53955;52.442;13.284;2022-10-04T15:59:23;25.92;;;5.20;;
67049;SDS011;53955;52.442;13.284;2022-10-04T16:02:00;15.18;;;2.85;;
67049;SDS011;53955;52.442;13.284;2022-10-04T16:04:54;5.57;;;1.52;;
67049;SDS011;53955;52.442;13.284;2022-10-04T16:07:40;3.03;;;1.30;;
67049;SDS011;53955;52.442;13.284;2022-10-04T16:10:21;1.92;;;1.02;;
67049;SDS011;53955;52.442;13.284;2022-10-04T16:13:02;2.35;;;1.20;;
67049;SDS011;53955;52.442;13.284;2022-10-04T16:15:46;3.35;;;1.45;;
67049;SDS011;53955;52.442;13.284;2022-10-04T16:18:51;3.03;;;1.30;;
67049;SDS011;53955;52.442;13.284;2022-10-04T16:21:29;2.55;;;1.20;;
67049;SDS011;53955;52.442;13.284;2022-10-04T16:30:21;4.68;;;1.10;;
67049;SDS011;53955;52.442;13.284;2022-10-04T16:36:06;4.28;;;1.90;;
67049;SDS011;53955;52.442;13.284;2022-10-04T16:38:42;5.63;;;1.90;;
67049;SDS011;53955;52.442;13.284;2022-10-04T16:41:33;3.90;;;1.67;;
67049;SDS011;53955;52.442;13.284;2022-10-04T16:44:07;4.05;;;1.52;;
67049;SDS011;53955;52.442;13.284;2022-10-04T16:46:47;2.85;;;1.27;;
67049;SDS011;53955;52.442;13.284;2022-10-04T16:49:19;4.75;;;1.27;;
67049;SDS011;53955;52.442;13.284;2022-10-04T16:51:52;3.47;;;1.85;;
67049;SDS011;53955;52.442;13.284;2022-10-04T16:54:53;3.40;;;1.40;;
67049;SDS011;53955;52.442;13.284;2022-10-04T16:57:26;2.10;;;1.52;;